No se requiere ningun cuidado especial respecto a la situación metereológica.   -   No hay avisos

Informes METAR

 

KSJC - San Jose, California, USA
Distancia de la estación: NE 14km
Actualización: 23/01/2020 08:53
Poco nuboso
Poco nuboso
 Viento de SE
Viento: SE 6 km/h
Temperatura: 9°C
Rocío: 7°C
Humedad: 87%
Barómetro: 1025.1 hPa
Nubes: Poco nuboso
Visibilidad: 16 km
Detalles de las nubes: Poco nuboso 305 m
Poco nuboso 4267 m
2020/01/23 07:53 KSJC 230753Z 14003KT 10SM FEW010 FEW140 09/07 A3027 RMK AO2 SLP248 LAST T00940072 401720089 $
KNUQ - Moffett Nas/Mtn, California, USA
Distancia de la estación: N 14km
Actualización: 21/11/2019 17:56
NOT Current

 
Barómetro: 1011.2 hPa
2019/11/21 16:56 KNUQ 211656Z AUTO A2986 RMK AO2 SLP116 PWINO $
 
KPAO - Palo Alto, California, USA
Distancia de la estación: NNO 23km
Actualización: 23/01/2020 05:47
NOT Current
Despejado
Despejado
 Viento de calm
Viento: Calma
Temperatura: 11°C
Rocío: 9°C
Humedad: 88%
Barómetro: 1024.7 hPa
Nubes: Despejado
Visibilidad: 16 km
2020/01/23 04:47 KPAO 230447Z 00000KT 10SM SKC 11/09 A3026 RMK LAST
KRHV - San Jose/Reid, California, USA
Distancia de la estación: ENE 19km
Actualización: 23/01/2020 03:52
NOT Current
Despejado
Despejado
 Viento de calm
Viento: Calma
Temperatura: 13°C
Rocío: 9°C
Humedad: 77%
Barómetro: 1024 hPa
Nubes: Despejado
Visibilidad: 16 km
2020/01/23 02:52 KRHV 230252Z 00000KT 10SM SKC 13/09 A3024
 
KOAK - Oakland, California, USA
Distancia de la estación: NNO 50km
Actualización: 23/01/2020 08:53
Poco nuboso
Poco nuboso
 Viento de E
Viento: E 9 km/h
Temperatura: 11°C
Rocío: 8°C
Humedad: 82%
Barómetro: 1025.1 hPa
Nubes: Poco nuboso
Visibilidad: 16 km
Detalles de las nubes: Poco nuboso 6096 m
2020/01/23 07:53 KOAK 230753Z 09005KT 10SM FEW200 11/08 A3027 RMK AO2 SLP249 T01060078 401560089
KSQL - San Carlos Airpo, California, USA
Distancia de la estación: NO 34km
Actualización: 23/01/2020 09:00
Despejado
Despejado
 Viento de calm
Viento: Calma
Temperatura: 9°C
Rocío: 8°C
Humedad: 94%
Barómetro: 1025.4 hPa
Nubes: Despejado
Visibilidad: 16 km
2020/01/23 08:00 KSQL 230800Z AUTO 00000KT 10SM CLR 09/08 A3028 RMK AO2
 
KSFO - San Francisco, California, USA
Distancia de la estación: NO 49km
Actualización: 23/01/2020 08:56
Poco nuboso
Poco nuboso
 Viento de calm
Viento: Calma
Temperatura: 12°C
Rocío: 8°C
Humedad: 77%
Barómetro: 1024.7 hPa
Nubes: Poco nuboso
Visibilidad: 16 km
Detalles de las nubes: Poco nuboso 6096 m
2020/01/23 07:56 KSFO 230756Z 00000KT 10SM FEW200 12/08 A3026 RMK AO2 SLP248 T01220078 401390100
KE16 - San Martin, California, USA
Distancia de la estación: ESE 43km
Actualización: 14/11/2019 10:35
NOT Current
Cubierto
Cubierto
 Viento de SE
Viento: SE 11 km/h
Temperatura: 12°C
Rocío: 10°C
Humedad: 88%
Barómetro: 1017.6 hPa
Nubes: Cubierto
Visibilidad: 16 km
Detalles de las nubes: Cubierto 427 m
2019/11/14 09:35 KE16 140935Z AUTO 13006KT 10SM OVC014 12/10 A3005 RMK AO2
 
KWVI - Watsonville, California, USA
Distancia de la estación: SSE 44km
Actualización: 23/01/2020 08:53
Despejado
Despejado
 Viento de calm
Viento: Calma
Temperatura: 10°C
Rocío: 9°C
Humedad: 94%
Barómetro: 1024.4 hPa
Nubes: Despejado
Visibilidad: 16 km
2020/01/23 07:53 KWVI 230753Z AUTO 00000KT 10SM CLR 10/09 A3025 RMK AO2 SLP242 T01000089 401780100
KHAF - Half Moon Bay, California, USA
Distancia de la estación: ONO 50km
Actualización: 23/01/2020 09:00
Despejado
Despejado
 Viento de calm
Viento: Calma
Temperatura: 8°C
Rocío: 8°C
Humedad: 100%
Barómetro: 1024.4 hPa
Nubes: Despejado
Visibilidad: 16 km
2020/01/23 08:00 KHAF 230800Z AUTO 00000KT 10SM CLR 08/08 A3025 RMK AO2
 
KHWD - Hayward, California, USA
Distancia de la estación: N 44km
Actualización: 23/01/2020 08:54
Despejado
Despejado
 Viento de NE
Viento: NE 11 km/h
Temperatura: 11°C
Rocío: 8°C
Humedad: 82%
Barómetro: 1024.7 hPa
Nubes: Despejado
Visibilidad: 16 km
2020/01/23 07:54 KHWD 230754Z AUTO 04006KT 10SM CLR 11/08 A3026 RMK AO2 SLP257 T01060083 401560106
KLVK - Livermore, California, USA
Distancia de la estación: NNE 51km
Actualización: 23/01/2020 08:53
Neblina, Despejado
Neblina, Despejado
 Viento de calm
Viento: Calma
Temperatura: 8°C
Rocío: 7°C
Humedad: 93%
Barómetro: 1025.1 hPa
Resumen: Neblina
Nubes: Despejado
Visibilidad: 8 km
2020/01/23 07:53 KLVK 230753Z AUTO 00000KT 5SM BR CLR 08/07 A3027 RMK AO2 SLP249 T00780067 401720067